createdAt,value
2024-01-26T00:02:02.125Z,3.60
2024-01-26T00:04:30.339Z,3.00
2024-01-26T00:06:58.682Z,3.80
2024-01-26T00:09:26.742Z,3.70
2024-01-26T00:11:54.574Z,3.20
2024-01-26T00:14:22.143Z,4.60
2024-01-26T00:16:49.693Z,3.30
2024-01-26T00:19:17.444Z,5.70
2024-01-26T00:21:45.256Z,3.80
2024-01-26T00:24:12.878Z,3.60
2024-01-26T00:26:40.443Z,3.70
2024-01-26T00:29:08.011Z,3.90
2024-01-26T00:31:35.997Z,6.10
2024-01-26T00:34:03.602Z,5.50
2024-01-26T00:36:31.549Z,4.80
2024-01-26T00:38:59.152Z,5.40
2024-01-26T00:41:26.721Z,5.00
2024-01-26T00:43:54.292Z,3.70
2024-01-26T00:46:21.847Z,3.30
2024-01-26T00:48:49.511Z,3.60
2024-01-26T00:51:17.367Z,5.00
2024-01-26T00:53:45.026Z,2.80
2024-01-26T00:56:12.582Z,2.80
2024-01-26T00:58:40.144Z,2.60
2024-01-26T01:01:07.798Z,2.40
2024-01-26T01:03:35.617Z,1.80
2024-01-26T01:06:03.415Z,1.70
2024-01-26T01:08:31.259Z,1.90
2024-01-26T01:10:58.953Z,2.40
2024-01-26T01:13:26.626Z,1.50
2024-01-26T01:15:54.290Z,1.80
2024-01-26T01:18:21.913Z,2.70
2024-01-26T01:20:50.061Z,2.40
2024-01-26T01:23:17.694Z,2.60
2024-01-26T01:25:45.331Z,2.50
2024-01-26T01:28:12.900Z,2.60
2024-01-26T01:30:40.565Z,3.30
2024-01-26T01:33:08.264Z,3.50
2024-01-26T01:35:36.022Z,3.50
2024-01-26T01:38:03.871Z,3.20
2024-01-26T01:40:31.629Z,3.40
2024-01-26T01:42:59.179Z,2.40
2024-01-26T01:45:27.142Z,3.70
2024-01-26T01:47:54.761Z,3.30
2024-01-26T01:50:22.579Z,3.30
2024-01-26T01:52:50.234Z,3.20
2024-01-26T01:55:17.883Z,3.80
2024-01-26T01:57:45.453Z,6.30
2024-01-26T02:00:13.153Z,3.30
2024-01-26T02:02:40.703Z,5.80
2024-01-26T02:05:08.509Z,6.40
2024-01-26T02:07:36.303Z,8.00
2024-01-26T02:10:04.284Z,6.00
2024-01-26T02:12:31.940Z,5.40
2024-01-26T02:14:59.705Z,2.50
2024-01-26T02:17:27.375Z,3.50
2024-01-26T02:19:54.921Z,4.00
2024-01-26T02:22:22.570Z,3.90
2024-01-26T02:24:50.737Z,3.40
2024-01-26T02:27:19.052Z,3.40
2024-01-26T02:29:46.764Z,3.50
2024-01-26T02:32:14.366Z,2.70
2024-01-26T02:34:42.057Z,2.80
2024-01-26T02:37:09.773Z,2.80
2024-01-26T02:39:37.435Z,3.20
2024-01-26T02:42:05.106Z,4.90
2024-01-26T02:44:32.901Z,3.40
2024-01-26T02:47:00.618Z,2.60
2024-01-26T02:49:28.268Z,3.10
2024-01-26T02:51:56.060Z,2.30
2024-01-26T02:54:24.575Z,3.00
2024-01-26T02:56:52.698Z,2.60
2024-01-26T02:59:20.665Z,2.40
2024-01-26T03:01:48.494Z,3.80
2024-01-26T03:04:16.409Z,3.70
2024-01-26T03:06:44.424Z,3.80
2024-01-26T03:09:12.256Z,4.70
2024-01-26T03:11:40.103Z,3.40
2024-01-26T03:14:08.041Z,9.30
2024-01-26T03:16:35.775Z,6.00
2024-01-26T03:19:03.680Z,4.40
2024-01-26T03:21:31.471Z,2.80
2024-01-26T03:23:59.095Z,3.50
2024-01-26T03:26:27.100Z,3.30
2024-01-26T03:28:54.759Z,5.10
2024-01-26T03:31:22.317Z,6.80
2024-01-26T03:33:50.182Z,3.20
2024-01-26T03:36:18.032Z,4.00
2024-01-26T03:38:45.868Z,3.80
2024-01-26T03:41:13.509Z,2.20
2024-01-26T03:43:41.142Z,3.40
2024-01-26T03:46:08.817Z,3.80
2024-01-26T03:48:36.533Z,3.60
2024-01-26T03:51:04.707Z,3.70
2024-01-26T03:53:32.546Z,2.80
2024-01-26T03:56:00.216Z,3.10
2024-01-26T03:58:27.937Z,3.20
2024-01-26T04:00:55.509Z,3.50
2024-01-26T04:03:23.252Z,4.20
2024-01-26T04:05:50.954Z,3.70
2024-01-26T04:08:18.575Z,6.40
2024-01-26T04:10:46.386Z,3.90
2024-01-26T04:13:13.996Z,2.60
2024-01-26T04:15:42.077Z,3.90
2024-01-26T04:18:09.826Z,3.20
2024-01-26T04:20:37.515Z,4.00
2024-01-26T04:23:05.148Z,3.20
2024-01-26T04:25:32.710Z,2.40
2024-01-26T04:28:00.690Z,2.50
2024-01-26T04:30:28.323Z,3.20
2024-01-26T04:32:56.025Z,2.80
2024-01-26T04:35:23.874Z,2.80
2024-01-26T04:37:51.448Z,3.20
2024-01-26T04:40:19.410Z,3.80
2024-01-26T04:42:46.966Z,3.30
2024-01-26T04:45:14.817Z,2.50
2024-01-26T04:47:42.763Z,3.50
2024-01-26T04:50:10.573Z,3.40
2024-01-26T04:52:40.635Z,3.10
2024-01-26T04:55:09.978Z,2.40
2024-01-26T04:57:37.630Z,3.70
2024-01-26T05:00:05.353Z,4.30
2024-01-26T05:02:33.184Z,3.40
2024-01-26T05:05:01.142Z,4.60
2024-01-26T05:07:28.790Z,5.10
2024-01-26T05:09:56.351Z,4.80
2024-01-26T05:12:23.911Z,5.50
2024-01-26T05:14:51.516Z,5.20
2024-01-26T05:17:19.275Z,3.90
2024-01-26T05:19:46.988Z,5.80
2024-01-26T05:22:14.763Z,6.00
2024-01-26T05:24:42.324Z,4.40
2024-01-26T05:27:10.066Z,5.20
2024-01-26T05:29:37.768Z,6.30
2024-01-26T05:32:05.826Z,7.90
2024-01-26T05:34:33.497Z,8.70
2024-01-26T05:37:01.249Z,7.80
2024-01-26T05:39:28.821Z,7.90
2024-01-26T05:41:56.449Z,6.60
2024-01-26T05:44:24.128Z,6.90
2024-01-26T05:46:51.792Z,6.70
2024-01-26T05:49:19.568Z,6.50
2024-01-26T05:51:47.222Z,6.50
2024-01-26T05:54:14.897Z,5.50
2024-01-26T05:56:42.695Z,7.70
2024-01-26T05:59:10.308Z,6.80
2024-01-26T06:01:37.966Z,7.90
2024-01-26T06:04:05.560Z,6.30
2024-01-26T06:06:33.358Z,8.30
2024-01-26T06:09:01.311Z,6.80
2024-01-26T06:11:29.024Z,8.10
2024-01-26T06:13:56.693Z,7.40
2024-01-26T06:16:24.788Z,29.10
2024-01-26T06:18:52.498Z,29.90
2024-01-26T06:21:20.540Z,17.10
2024-01-26T06:23:48.271Z,13.00
2024-01-26T06:26:15.920Z,11.20
2024-01-26T06:28:43.501Z,9.10
2024-01-26T06:31:11.139Z,7.80
2024-01-26T06:33:39.190Z,7.70
2024-01-26T06:36:07.038Z,5.40
2024-01-26T06:38:34.682Z,9.40
2024-01-26T06:41:02.394Z,7.50
2024-01-26T06:43:29.953Z,7.50
2024-01-26T06:45:58.038Z,6.20
2024-01-26T06:48:25.680Z,6.80
2024-01-26T06:50:53.364Z,5.30
2024-01-26T06:53:21.023Z,6.70
2024-01-26T06:55:50.160Z,6.80
2024-01-26T06:58:19.124Z,8.10
2024-01-26T07:00:46.743Z,8.50
2024-01-26T07:03:14.574Z,9.20
2024-01-26T07:05:42.528Z,9.70
2024-01-26T07:08:10.448Z,9.10
2024-01-26T07:10:38.115Z,7.40
2024-01-26T07:13:05.977Z,7.50
2024-01-26T07:15:33.525Z,6.10
2024-01-26T07:18:01.226Z,7.30
2024-01-26T07:20:28.877Z,12.70
2024-01-26T07:22:56.520Z,13.70
2024-01-26T07:25:24.178Z,7.80
2024-01-26T07:27:51.741Z,7.40
2024-01-26T07:30:19.475Z,10.30
2024-01-26T07:32:47.405Z,7.00
2024-01-26T07:35:15.135Z,6.10
2024-01-26T07:37:43.090Z,7.90
2024-01-26T07:40:10.672Z,8.90
2024-01-26T07:42:38.321Z,8.00
2024-01-26T07:45:05.988Z,9.10
2024-01-26T07:47:33.614Z,9.00
2024-01-26T07:50:01.371Z,7.60
2024-01-26T07:52:29.068Z,8.30
2024-01-26T07:54:56.618Z,7.00
2024-01-26T07:57:24.303Z,17.50
2024-01-26T07:59:51.991Z,19.00
2024-01-26T08:02:20.631Z,25.30
2024-01-26T08:04:50.040Z,39.00
2024-01-26T08:07:17.825Z,25.40
2024-01-26T08:09:45.836Z,19.10
2024-01-26T08:12:24.621Z,12.00
2024-01-26T08:15:01.300Z,9.90
2024-01-26T08:17:29.576Z,7.80
2024-01-26T08:19:57.247Z,7.90
2024-01-26T08:22:25.491Z,7.90
2024-01-26T08:24:53.466Z,11.20
2024-01-26T08:27:22.515Z,7.20
2024-01-26T08:29:50.363Z,9.00
2024-01-26T08:32:18.095Z,10.90
2024-01-26T08:34:45.973Z,11.00
2024-01-26T08:37:13.854Z,8.80
2024-01-26T08:39:41.504Z,10.60
2024-01-26T08:42:09.278Z,9.10
2024-01-26T08:44:36.838Z,6.50
2024-01-26T08:47:04.587Z,12.00
2024-01-26T08:49:32.227Z,9.20
2024-01-26T08:52:00.434Z,6.10
2024-01-26T08:54:28.016Z,10.00
2024-01-26T08:56:55.779Z,12.20
2024-01-26T08:59:23.403Z,7.70
2024-01-26T09:01:51.061Z,12.50
2024-01-26T09:04:18.745Z,7.70
2024-01-26T09:06:49.752Z,6.00
2024-01-26T09:09:19.712Z,8.80
2024-01-26T09:11:47.464Z,7.20
2024-01-26T09:14:15.003Z,6.20
2024-01-26T09:16:42.940Z,8.40
2024-01-26T09:19:10.645Z,5.90
2024-01-26T09:21:38.475Z,3.60
2024-01-26T09:24:06.216Z,4.70
2024-01-26T09:26:33.869Z,5.10
2024-01-26T09:29:01.804Z,4.80
2024-01-26T09:31:29.328Z,3.90
2024-01-26T09:33:57.010Z,4.30
2024-01-26T09:36:24.690Z,3.20
2024-01-26T09:38:52.389Z,4.30
2024-01-26T09:41:20.399Z,4.50
2024-01-26T09:43:47.944Z,4.20
2024-01-26T09:46:15.503Z,4.30
2024-01-26T09:48:43.336Z,3.60
2024-01-26T09:51:11.081Z,6.20
2024-01-26T09:53:38.978Z,3.90
2024-01-26T09:56:06.884Z,3.80
2024-01-26T09:58:34.426Z,4.70
2024-01-26T10:01:02.025Z,3.60
2024-01-26T10:03:33.717Z,3.60
2024-01-26T10:06:02.871Z,4.80
2024-01-26T10:08:30.508Z,3.60
2024-01-26T10:10:58.061Z,3.20
2024-01-26T10:13:25.818Z,3.00
2024-01-26T10:18:21.540Z,3.80
2024-01-26T10:20:49.255Z,3.20
2024-01-26T10:25:44.739Z,5.80
2024-01-26T10:28:12.309Z,3.50
2024-01-26T10:30:40.273Z,4.10
2024-01-26T10:33:08.473Z,3.30
2024-01-26T10:35:36.452Z,3.30
2024-01-26T10:38:04.082Z,3.50
2024-01-26T10:40:32.052Z,2.60
2024-01-26T10:42:59.805Z,3.90
2024-01-26T10:45:27.582Z,3.40
2024-01-26T10:47:55.328Z,3.90
2024-01-26T10:50:23.215Z,3.60
2024-01-26T10:52:51.356Z,3.70
2024-01-26T10:55:19.155Z,4.20
2024-01-26T10:57:47.120Z,3.70
2024-01-26T11:00:14.882Z,3.40
2024-01-26T11:02:42.848Z,3.00
2024-01-26T11:07:38.370Z,2.50
2024-01-26T11:10:05.934Z,2.50
2024-01-26T11:12:33.593Z,2.30
2024-01-26T11:15:02.474Z,2.20
2024-01-26T11:17:30.764Z,2.50
2024-01-26T11:19:58.319Z,1.70
2024-01-26T11:22:26.080Z,2.70
2024-01-26T11:24:53.952Z,2.80
2024-01-26T11:27:21.702Z,2.80
2024-01-26T11:29:49.551Z,3.00
2024-01-26T11:32:17.245Z,2.40
2024-01-26T11:34:44.834Z,2.80
2024-01-26T11:37:12.463Z,2.70
2024-01-26T11:39:40.124Z,11.00
2024-01-26T11:42:07.860Z,7.40
2024-01-26T11:44:35.692Z,4.70
2024-01-26T11:47:03.411Z,14.70
2024-01-26T11:49:31.423Z,38.10
2024-01-26T11:51:59.258Z,16.20
2024-01-26T11:54:26.913Z,13.30
2024-01-26T11:56:55.005Z,8.60
2024-01-26T11:59:22.649Z,4.90
2024-01-26T12:01:50.309Z,4.20
2024-01-26T12:04:18.278Z,3.80
2024-01-26T12:06:47.602Z,2.80
2024-01-26T12:09:16.002Z,2.40
2024-01-26T12:11:43.731Z,2.50
2024-01-26T12:14:11.889Z,4.50
2024-01-26T12:16:39.652Z,3.90
2024-01-26T12:19:07.336Z,3.50
2024-01-26T12:21:35.078Z,6.50
2024-01-26T12:24:02.772Z,4.60
2024-01-26T12:26:30.400Z,5.10
2024-01-26T12:28:58.069Z,5.40
2024-01-26T12:31:25.625Z,5.10
2024-01-26T12:33:53.466Z,5.40
2024-01-26T12:38:50.421Z,3.80
2024-01-26T12:41:18.212Z,4.20
2024-01-26T12:43:46.190Z,6.40
2024-01-26T12:48:42.251Z,4.10
2024-01-26T12:51:10.139Z,5.30
2024-01-26T12:53:37.880Z,3.70
2024-01-26T12:56:05.409Z,4.00
2024-01-26T12:58:33.480Z,5.20
2024-01-26T13:01:01.172Z,3.80
2024-01-26T13:03:29.090Z,4.30
2024-01-26T13:05:57.040Z,5.10
2024-01-26T13:08:24.744Z,3.80
2024-01-26T13:10:52.422Z,4.60
2024-01-26T13:13:19.976Z,4.20
2024-01-26T13:15:47.528Z,4.10
2024-01-26T13:18:21.797Z,18.30
2024-01-26T13:20:56.540Z,7.60
2024-01-26T13:23:24.774Z,11.80
2024-01-26T13:25:52.401Z,4.20
2024-01-26T13:28:19.964Z,5.30
2024-01-26T13:30:47.529Z,3.00
2024-01-26T13:33:15.210Z,3.40
2024-01-26T13:35:43.151Z,3.50
2024-01-26T13:38:10.819Z,6.80
2024-01-26T13:40:38.473Z,3.60
2024-01-26T13:43:06.033Z,3.40
2024-01-26T13:45:34.170Z,3.50
2024-01-26T13:48:07.789Z,10.20
2024-01-26T13:50:39.751Z,7.70
2024-01-26T13:53:07.845Z,5.90
2024-01-26T13:55:35.499Z,6.40
2024-01-26T13:58:03.266Z,6.60
2024-01-26T14:00:30.972Z,6.50
2024-01-26T14:02:58.895Z,13.10
2024-01-26T14:05:26.692Z,14.60
2024-01-26T14:07:54.426Z,10.80
2024-01-26T14:10:22.401Z,8.30
2024-01-26T14:12:50.091Z,10.20
2024-01-26T14:15:17.908Z,6.80
2024-01-26T14:17:45.751Z,11.40
2024-01-26T14:20:13.696Z,15.90
2024-01-26T14:22:41.445Z,15.00
2024-01-26T14:25:08.999Z,10.80
2024-01-26T14:27:36.645Z,10.30
2024-01-26T14:30:04.229Z,9.20
2024-01-26T14:32:31.994Z,9.00
2024-01-26T14:34:59.654Z,11.30
2024-01-26T14:37:29.035Z,8.40
2024-01-26T14:39:57.817Z,9.80
2024-01-26T14:42:25.496Z,9.00
2024-01-26T14:44:53.313Z,13.90
2024-01-26T14:47:21.106Z,8.90
2024-01-26T14:49:48.764Z,20.60
2024-01-26T14:52:16.438Z,24.30
2024-01-26T14:54:44.494Z,17.00
2024-01-26T14:57:12.081Z,16.60
2024-01-26T14:59:40.156Z,39.50
2024-01-26T15:02:07.698Z,31.80
2024-01-26T15:04:35.387Z,17.10
2024-01-26T15:07:03.156Z,38.00
2024-01-26T15:09:31.023Z,16.80
2024-01-26T15:11:58.966Z,10.00
2024-01-26T15:14:26.711Z,10.90
2024-01-26T15:16:54.272Z,12.30
2024-01-26T15:19:22.194Z,11.90
2024-01-26T15:21:49.835Z,13.90
2024-01-26T15:24:17.726Z,10.90
2024-01-26T15:26:45.827Z,8.20
2024-01-26T15:29:13.726Z,8.50
2024-01-26T15:31:41.282Z,11.20
2024-01-26T15:34:09.102Z,8.60
2024-01-26T15:36:36.907Z,8.70
2024-01-26T15:39:04.701Z,11.50
2024-01-26T15:41:32.362Z,14.90
2024-01-26T15:44:00.101Z,19.50
2024-01-26T15:46:27.765Z,13.60
2024-01-26T15:48:55.534Z,11.20
2024-01-26T15:51:23.581Z,11.60
2024-01-26T15:53:51.197Z,38.20
2024-01-26T15:56:18.799Z,28.10
2024-01-26T15:58:46.471Z,14.40
2024-01-26T16:01:14.061Z,23.30
2024-01-26T16:03:41.796Z,15.50
2024-01-26T16:06:09.593Z,23.70
2024-01-26T16:08:37.473Z,14.50
2024-01-26T16:11:05.190Z,17.00
2024-01-26T16:13:32.748Z,18.20
2024-01-26T16:16:00.848Z,19.80
2024-01-26T16:18:28.820Z,40.60
2024-01-26T16:20:56.665Z,24.30
2024-01-26T16:23:24.330Z,17.40
2024-01-26T16:25:51.854Z,18.20
2024-01-26T16:28:19.413Z,22.20
2024-01-26T16:30:46.975Z,21.60
2024-01-26T16:33:14.749Z,40.00
2024-01-26T16:35:42.637Z,30.20
2024-01-26T16:38:10.169Z,24.90
2024-01-26T16:40:38.249Z,24.40
2024-01-26T16:43:05.929Z,24.60
2024-01-26T16:45:33.602Z,20.60
2024-01-26T16:48:01.186Z,17.60
2024-01-26T16:50:28.980Z,25.40
2024-01-26T16:52:56.648Z,21.60
2024-01-26T16:55:24.316Z,21.20
2024-01-26T16:57:51.864Z,21.30
2024-01-26T17:00:19.478Z,20.20
2024-01-26T17:02:47.293Z,14.10
2024-01-26T17:05:15.283Z,11.00
2024-01-26T17:07:43.028Z,17.70
2024-01-26T17:10:10.692Z,19.10
2024-01-26T17:12:38.354Z,23.30
2024-01-26T17:15:06.149Z,21.00
2024-01-26T17:17:34.014Z,18.60
2024-01-26T17:20:01.858Z,17.40
2024-01-26T17:22:29.516Z,26.90
2024-01-26T17:24:57.072Z,24.80
2024-01-26T17:27:24.699Z,21.50
2024-01-26T17:29:52.506Z,22.40
2024-01-26T17:32:20.469Z,22.50
2024-01-26T17:34:48.131Z,27.90
2024-01-26T17:37:15.930Z,23.40
2024-01-26T17:39:51.935Z,24.10
2024-01-26T17:42:27.536Z,20.40
2024-01-26T17:44:55.372Z,25.70
2024-01-26T17:47:22.926Z,23.30
2024-01-26T17:49:50.548Z,18.60
2024-01-26T17:52:18.135Z,24.30
2024-01-26T17:54:46.141Z,22.00
2024-01-26T17:57:13.926Z,18.60
2024-01-26T17:59:41.585Z,16.80
2024-01-26T18:02:09.204Z,17.70
2024-01-26T18:04:36.761Z,15.10
2024-01-26T18:07:04.438Z,15.70
2024-01-26T18:09:32.122Z,16.60
2024-01-26T18:11:59.765Z,15.20
2024-01-26T18:14:27.428Z,15.30
2024-01-26T18:16:55.058Z,15.80
2024-01-26T18:19:23.105Z,15.60
2024-01-26T18:21:51.016Z,15.40
2024-01-26T18:24:18.649Z,15.10
2024-01-26T18:26:46.559Z,15.80
2024-01-26T18:29:14.196Z,10.80
2024-01-26T18:31:41.850Z,13.20
2024-01-26T18:34:09.652Z,32.40
2024-01-26T18:36:37.383Z,16.70
2024-01-26T18:39:05.072Z,12.10
2024-01-26T18:41:32.810Z,11.50
2024-01-26T18:44:00.782Z,11.80
2024-01-26T18:46:28.371Z,12.10
2024-01-26T18:48:56.602Z,14.90
2024-01-26T18:51:24.625Z,15.80
2024-01-26T18:53:52.490Z,15.50
2024-01-26T18:56:20.209Z,13.10
2024-01-26T18:58:47.980Z,11.10
2024-01-26T19:01:16.989Z,13.30
2024-01-26T19:03:45.849Z,16.20
2024-01-26T19:06:14.193Z,12.30
2024-01-26T19:08:42.465Z,11.30
2024-01-26T19:11:10.474Z,12.80
2024-01-26T19:13:38.150Z,16.20
2024-01-26T19:16:06.017Z,17.60
2024-01-26T19:18:34.106Z,9.60
2024-01-26T19:21:01.971Z,8.80
2024-01-26T19:23:29.613Z,8.00
2024-01-26T19:25:57.271Z,8.80
2024-01-26T19:28:24.916Z,11.20
2024-01-26T19:30:52.694Z,9.20
2024-01-26T19:33:20.546Z,18.20
2024-01-26T19:35:48.831Z,10.90
2024-01-26T19:38:16.504Z,7.30
2024-01-26T19:40:44.188Z,5.90
2024-01-26T19:43:11.811Z,6.10
2024-01-26T19:45:39.489Z,5.80
2024-01-26T19:48:07.245Z,5.50
2024-01-26T19:50:34.899Z,4.50
2024-01-26T19:53:02.618Z,3.80
2024-01-26T19:55:30.331Z,3.40
2024-01-26T19:57:58.408Z,3.70
2024-01-26T20:00:26.243Z,3.50
2024-01-26T20:02:53.978Z,2.60
2024-01-26T20:05:21.702Z,3.00
2024-01-26T20:07:49.363Z,2.80
2024-01-26T20:10:17.652Z,2.30
2024-01-26T20:12:45.289Z,1.90
2024-01-26T20:15:12.986Z,1.60
2024-01-26T20:17:40.768Z,1.90
2024-01-26T20:20:08.488Z,2.10
2024-01-26T20:22:36.340Z,2.30
2024-01-26T20:25:04.435Z,2.90
2024-01-26T20:27:32.134Z,1.90
2024-01-26T20:29:59.927Z,2.50
2024-01-26T20:32:27.829Z,2.50
2024-01-26T20:34:55.692Z,1.90
2024-01-26T20:37:23.466Z,1.80
2024-01-26T20:39:51.203Z,2.40
2024-01-26T20:42:18.820Z,1.60
2024-01-26T20:44:46.560Z,1.60
2024-01-26T20:47:14.293Z,1.50
2024-01-26T20:49:42.279Z,1.40
2024-01-26T20:52:10.195Z,1.20
2024-01-26T20:54:38.000Z,1.20
2024-01-26T20:57:05.573Z,1.30
2024-01-26T20:59:33.228Z,1.10
2024-01-26T21:02:00.882Z,0.90
2024-01-26T21:04:28.647Z,1.20
2024-01-26T21:06:56.364Z,1.10
2024-01-26T21:09:24.200Z,1.60
2024-01-26T21:11:51.869Z,0.80
2024-01-26T21:14:19.908Z,1.00
2024-01-26T21:16:47.472Z,1.90
2024-01-26T21:19:15.213Z,1.90
2024-01-26T21:21:42.890Z,1.40
2024-01-26T21:24:10.622Z,1.60
2024-01-26T21:26:38.220Z,1.60
2024-01-26T21:29:05.874Z,1.70
2024-01-26T21:31:33.432Z,1.20
2024-01-26T21:34:01.122Z,1.70
2024-01-26T21:36:29.033Z,1.30
2024-01-26T21:38:57.211Z,1.00
2024-01-26T21:41:24.898Z,1.40
2024-01-26T21:43:52.662Z,1.10
2024-01-26T21:46:20.322Z,1.10
2024-01-26T21:48:48.223Z,1.30
2024-01-26T21:51:16.206Z,1.40
2024-01-26T21:53:44.070Z,2.30
2024-01-26T21:56:11.895Z,1.60
2024-01-26T21:58:39.548Z,2.60
2024-01-26T22:01:07.320Z,1.60
2024-01-26T22:03:35.383Z,1.10
2024-01-26T22:06:03.238Z,1.30
2024-01-26T22:08:30.940Z,1.70
2024-01-26T22:10:58.682Z,2.10
2024-01-26T22:13:26.248Z,1.50
2024-01-26T22:15:53.899Z,1.10
2024-01-26T22:18:21.613Z,1.20
2024-01-26T22:20:49.502Z,0.90
2024-01-26T22:23:17.179Z,1.00
2024-01-26T22:25:44.742Z,0.90
2024-01-26T22:28:12.302Z,1.10
2024-01-26T22:30:40.163Z,1.60
2024-01-26T22:33:07.812Z,1.10
2024-01-26T22:35:35.688Z,2.20
2024-01-26T22:38:03.351Z,1.30
2024-01-26T22:40:30.918Z,1.00
2024-01-26T22:42:58.580Z,1.20
2024-01-26T22:45:26.204Z,0.80
2024-01-26T22:47:54.122Z,0.70
2024-01-26T22:50:21.778Z,1.10
2024-01-26T22:52:49.438Z,0.70
2024-01-26T22:55:17.409Z,1.20
2024-01-26T22:57:45.059Z,1.20
2024-01-26T23:00:12.757Z,0.80
2024-01-26T23:02:40.457Z,0.90
2024-01-26T23:05:08.293Z,1.10
2024-01-26T23:07:35.916Z,1.30
2024-01-26T23:10:03.580Z,2.00
2024-01-26T23:12:31.292Z,1.50
2024-01-26T23:14:59.119Z,1.10
2024-01-26T23:17:26.657Z,1.80
2024-01-26T23:19:54.857Z,1.10
2024-01-26T23:22:22.599Z,1.10
2024-01-26T23:24:50.259Z,1.20
2024-01-26T23:27:17.860Z,1.70
2024-01-26T23:29:45.611Z,1.70
2024-01-26T23:32:13.362Z,2.00
2024-01-26T23:34:41.293Z,1.80
2024-01-26T23:37:08.869Z,1.90
2024-01-26T23:39:36.469Z,1.30
2024-01-26T23:42:04.111Z,1.40
2024-01-26T23:44:31.673Z,2.20
2024-01-26T23:46:59.721Z,1.20
2024-01-26T23:49:27.485Z,0.90
2024-01-26T23:51:55.143Z,1.90
2024-01-26T23:54:22.935Z,1.80
2024-01-26T23:56:50.586Z,1.70
2024-01-26T23:59:18.143Z,1.70
